createdAt,value
2023-03-12T00:02:22.359Z,99297.22
2023-03-12T00:04:49.089Z,99286.66
2023-03-12T00:07:15.907Z,99286.38
2023-03-12T00:09:42.582Z,99276.66
2023-03-12T00:12:09.612Z,99266.94
2023-03-12T00:14:36.769Z,99260.00
2023-03-12T00:17:04.024Z,99249.44
2023-03-12T00:19:30.889Z,99251.00
2023-03-12T00:21:57.624Z,99242.69
2023-03-12T00:24:24.637Z,99256.59
2023-03-12T00:26:51.413Z,99249.56
2023-03-12T00:29:18.085Z,99245.50
2023-03-12T00:31:44.900Z,99235.66
2023-03-12T00:34:11.799Z,99225.00
2023-03-12T00:36:40.717Z,99216.09
2023-03-12T00:39:08.534Z,99203.22
2023-03-12T00:41:35.324Z,99197.19
2023-03-12T00:44:02.032Z,99189.28
2023-03-12T00:46:28.920Z,99179.28
2023-03-12T00:48:55.672Z,99189.72
2023-03-12T00:51:22.781Z,99183.81
2023-03-12T00:53:49.591Z,99179.88
2023-03-12T00:56:16.732Z,99188.22
2023-03-12T00:58:43.703Z,99167.47
2023-03-12T01:01:11.056Z,99154.13
2023-03-12T01:03:38.066Z,99156.19
2023-03-12T01:06:05.379Z,99136.31
2023-03-12T01:08:33.363Z,99121.19
2023-03-12T01:11:00.675Z,99116.34
2023-03-12T01:13:27.927Z,99104.91
2023-03-12T01:15:54.696Z,99102.72
2023-03-12T01:18:21.689Z,99098.19
2023-03-12T01:20:48.702Z,99105.16
2023-03-12T01:23:16.213Z,99101.81
2023-03-12T01:25:43.503Z,99097.06
2023-03-12T01:28:10.530Z,99095.72
2023-03-12T01:30:37.339Z,99087.81
2023-03-12T01:33:04.487Z,99077.66
2023-03-12T01:35:35.785Z,99061.28
2023-03-12T01:38:02.514Z,99065.88
2023-03-12T01:40:29.317Z,99055.56
2023-03-12T01:42:58.601Z,99047.81
2023-03-12T01:46:10.894Z,99031.72
2023-03-12T01:48:42.778Z,99033.13
2023-03-12T01:51:12.451Z,99024.09
2023-03-12T01:53:42.939Z,99012.16
2023-03-12T01:56:10.455Z,99012.16
2023-03-12T01:58:40.386Z,99008.41
2023-03-12T02:01:07.488Z,99017.72
2023-03-12T02:03:35.419Z,99001.47
2023-03-12T02:06:06.938Z,98985.91
2023-03-12T02:08:38.128Z,98986.19
2023-03-12T02:11:04.937Z,98987.59
2023-03-12T02:13:32.599Z,98980.50
2023-03-12T02:15:59.653Z,98980.38
2023-03-12T02:18:27.231Z,98978.81
2023-03-12T02:21:09.660Z,98971.75
2023-03-12T02:23:54.843Z,98967.84
2023-03-12T02:26:24.583Z,98979.50
2023-03-12T02:28:51.897Z,98963.13
2023-03-12T02:31:23.330Z,98952.28
2023-03-12T02:33:52.862Z,98949.78
2023-03-12T02:36:20.733Z,98947.00
2023-03-12T02:38:53.060Z,98940.47
2023-03-12T02:41:24.105Z,98934.22
2023-03-12T02:44:18.387Z,98910.31
2023-03-12T02:46:53.622Z,98906.41
2023-03-12T02:49:21.969Z,98894.72
2023-03-12T02:51:49.662Z,98894.16
2023-03-12T02:54:18.702Z,98903.34
2023-03-12T02:56:45.535Z,98890.28
2023-03-12T02:59:14.370Z,98882.78
2023-03-12T03:01:45.037Z,98864.84
2023-03-12T03:04:13.042Z,98868.03
2023-03-12T03:06:42.959Z,98857.06
2023-03-12T03:09:09.844Z,98853.00
2023-03-12T03:11:36.793Z,98840.22
2023-03-12T03:14:06.992Z,98835.22
2023-03-12T03:16:34.566Z,98821.28
2023-03-12T03:19:01.504Z,98798.63
2023-03-12T03:21:28.412Z,98803.09
2023-03-12T03:23:55.156Z,98788.50
2023-03-12T03:26:23.483Z,98781.81
2023-03-12T03:28:50.871Z,98787.94
2023-03-12T03:31:18.458Z,98784.31
2023-03-12T03:33:46.162Z,98776.09
2023-03-12T03:36:15.059Z,98769.69
2023-03-12T03:38:50.659Z,98763.72
2023-03-12T03:41:20.053Z,98758.63
2023-03-12T03:43:47.860Z,98769.03
2023-03-12T03:46:17.593Z,98759.31
2023-03-12T03:48:50.917Z,98747.75
2023-03-12T03:51:17.879Z,98749.44
2023-03-12T03:53:47.765Z,98738.31
2023-03-12T03:56:16.433Z,98727.19
2023-03-12T03:58:49.117Z,98725.38
2023-03-12T04:01:18.529Z,98724.66
2023-03-12T04:03:46.742Z,98715.22
2023-03-12T04:06:13.844Z,98715.50
2023-03-12T04:08:41.005Z,98715.50
2023-03-12T04:11:15.340Z,98706.59
2023-03-12T04:13:43.139Z,98689.53
2023-03-12T04:16:12.028Z,98679.13
2023-03-12T04:18:40.210Z,98664.22
2023-03-12T04:21:10.233Z,98665.38
2023-03-12T04:23:37.710Z,98677.44
2023-03-12T04:26:05.497Z,98670.78
2023-03-12T04:28:32.827Z,98661.91
2023-03-12T04:31:03.962Z,98661.22
2023-03-12T04:33:38.190Z,98653.81
2023-03-12T04:36:06.395Z,98652.16
2023-03-12T04:38:35.116Z,98649.66
2023-03-12T04:41:11.589Z,98636.44
2023-03-12T04:43:43.154Z,98635.75
2023-03-12T04:46:10.437Z,98631.47
2023-03-12T04:48:38.785Z,98629.84
2023-03-12T04:51:06.851Z,98622.06
2023-03-12T04:53:34.123Z,98621.69
2023-03-12T04:56:02.509Z,98615.59
2023-03-12T04:58:30.470Z,98615.50
2023-03-12T05:00:57.387Z,98611.59
2023-03-12T05:03:24.216Z,98613.56
2023-03-12T05:05:51.174Z,98600.81
2023-03-12T05:08:18.073Z,98608.31
2023-03-12T05:10:45.934Z,98610.28
2023-03-12T05:13:17.977Z,98613.50
2023-03-12T05:15:47.568Z,98602.25
2023-03-12T05:18:14.996Z,98604.22
2023-03-12T05:20:41.854Z,98606.19
2023-03-12T05:23:08.758Z,98601.34
2023-03-12T05:25:40.399Z,98605.50
2023-03-12T05:28:08.142Z,98588.72
2023-03-12T05:30:36.279Z,98598.44
2023-03-12T05:33:03.156Z,98584.69
2023-03-12T05:35:31.446Z,98587.22
2023-03-12T05:37:58.209Z,98580.41
2023-03-12T05:40:24.936Z,98578.03
2023-03-12T05:42:53.150Z,98573.75
2023-03-12T05:45:21.390Z,98562.66
2023-03-12T05:47:51.733Z,98560.97
2023-03-12T05:50:19.162Z,98551.00
2023-03-12T05:52:46.230Z,98560.16
2023-03-12T05:55:12.976Z,98555.88
2023-03-12T05:57:39.665Z,98551.56
2023-03-12T06:00:07.410Z,98551.03
2023-03-12T06:02:40.079Z,98542.94
2023-03-12T06:05:09.253Z,98546.56
2023-03-12T06:07:36.209Z,98547.97
2023-03-12T06:10:03.539Z,98546.72
2023-03-12T06:12:30.278Z,98540.72
2023-03-12T06:14:58.171Z,98539.91
2023-03-12T06:17:24.904Z,98539.38
2023-03-12T06:19:53.938Z,98534.50
2023-03-12T06:22:21.142Z,98526.28
2023-03-12T06:24:49.415Z,98528.38
2023-03-12T06:27:17.934Z,98526.84
2023-03-12T06:29:46.993Z,98535.75
2023-03-12T06:32:14.026Z,98536.16
2023-03-12T06:34:40.975Z,98528.66
2023-03-12T06:37:07.702Z,98532.44
2023-03-12T06:39:34.647Z,98525.91
2023-03-12T06:42:01.555Z,98514.38
2023-03-12T06:44:28.309Z,98514.81
2023-03-12T06:46:55.021Z,98505.91
2023-03-12T06:49:22.356Z,98506.72
2023-03-12T06:51:49.026Z,98504.09
2023-03-12T06:54:15.872Z,98504.91
2023-03-12T06:56:43.123Z,98504.66
2023-03-12T06:59:10.026Z,98503.25
2023-03-12T07:01:36.723Z,98507.84
2023-03-12T07:04:03.544Z,98497.31
2023-03-12T07:06:30.220Z,98499.25
2023-03-12T07:08:56.930Z,98496.59
2023-03-12T07:11:23.597Z,98490.34
2023-03-12T07:13:51.614Z,98496.31
2023-03-12T07:16:18.430Z,98504.06
2023-03-12T07:18:45.218Z,98502.84
2023-03-12T07:21:12.204Z,98499.06
2023-03-12T07:23:38.920Z,98496.72
2023-03-12T07:26:06.052Z,98499.75
2023-03-12T07:28:32.920Z,98490.31
2023-03-12T07:31:05.879Z,98489.63
2023-03-12T07:33:33.179Z,98488.38
2023-03-12T07:36:00.453Z,98488.47
2023-03-12T07:38:27.735Z,98484.88
2023-03-12T07:40:56.307Z,98479.16
2023-03-12T07:43:24.633Z,98471.38
2023-03-12T07:45:54.213Z,98461.94
2023-03-12T07:48:22.171Z,98469.28
2023-03-12T07:50:49.013Z,98467.72
2023-03-12T07:53:16.035Z,98460.25
2023-03-12T07:55:46.158Z,98451.38
2023-03-12T07:58:13.542Z,98450.13
2023-03-12T08:00:40.521Z,98454.09
2023-03-12T08:03:07.941Z,98457.25
2023-03-12T08:05:35.102Z,98457.03
2023-03-12T08:08:01.992Z,98454.69
2023-03-12T08:10:28.876Z,98458.03
2023-03-12T08:12:55.707Z,98451.75
2023-03-12T08:15:22.485Z,98460.59
2023-03-12T08:17:49.180Z,98455.03
2023-03-12T08:20:15.987Z,98449.28
2023-03-12T08:22:42.701Z,98444.78
2023-03-12T08:25:10.156Z,98445.44
2023-03-12T08:27:37.203Z,98439.88
2023-03-12T08:30:06.501Z,98437.00
2023-03-12T08:32:33.595Z,98428.56
2023-03-12T08:35:00.457Z,98423.66
2023-03-12T08:37:27.129Z,98418.13
2023-03-12T08:39:53.818Z,98422.28
2023-03-12T08:42:20.451Z,98410.63
2023-03-12T08:44:47.239Z,98406.94
2023-03-12T08:47:13.907Z,98404.59
2023-03-12T08:49:40.590Z,98401.88
2023-03-12T08:52:07.432Z,98403.06
2023-03-12T08:54:34.231Z,98399.53
2023-03-12T08:57:00.889Z,98394.22
2023-03-12T08:59:27.595Z,98389.94
2023-03-12T09:01:54.399Z,98405.66
2023-03-12T09:04:21.700Z,98403.91
2023-03-12T09:06:48.533Z,98406.84
2023-03-12T09:09:15.527Z,98404.19
2023-03-12T09:11:42.669Z,98407.22
2023-03-12T09:16:57.847Z,98416.50
2023-03-12T09:19:24.704Z,98413.66
2023-03-12T09:21:51.491Z,98417.38
2023-03-12T09:24:18.245Z,98418.84
2023-03-12T09:26:45.012Z,98415.00
2023-03-12T09:29:11.721Z,98403.06
2023-03-12T09:31:38.479Z,98395.38
2023-03-12T09:34:05.496Z,98401.72
2023-03-12T09:36:32.835Z,98395.44
2023-03-12T09:38:59.755Z,98408.34
2023-03-12T09:41:30.384Z,98403.06
2023-03-12T09:44:09.291Z,98403.63
2023-03-12T09:46:47.108Z,98409.56
2023-03-12T09:49:49.315Z,98406.94
2023-03-12T09:52:32.358Z,98414.03
2023-03-12T09:55:17.362Z,98421.34
2023-03-12T09:57:45.480Z,98419.16
2023-03-12T10:00:24.030Z,98411.38
2023-03-12T10:02:59.032Z,98412.06
2023-03-12T10:05:34.922Z,98420.63
2023-03-12T10:08:23.121Z,98421.16
2023-03-12T10:10:56.893Z,98413.88
2023-03-12T10:13:44.442Z,98420.53
2023-03-12T10:16:37.864Z,98398.34
2023-03-12T10:19:36.919Z,98409.75
2023-03-12T10:22:27.485Z,98407.63
2023-03-12T10:25:12.669Z,98409.41
2023-03-12T10:27:41.268Z,98409.94
2023-03-12T10:30:20.027Z,98408.84
2023-03-12T10:32:53.748Z,98403.34
2023-03-12T10:35:23.603Z,98407.00
2023-03-12T10:37:54.363Z,98403.53
2023-03-12T10:40:30.285Z,98395.13
2023-03-12T10:42:57.051Z,98400.66
2023-03-12T10:45:46.155Z,98410.84
2023-03-12T10:48:20.443Z,98405.50
2023-03-12T10:51:02.162Z,98415.47
2023-03-12T10:53:32.327Z,98418.56
2023-03-12T10:56:25.188Z,98420.56
2023-03-12T10:58:54.046Z,98419.00
2023-03-12T11:01:27.393Z,98416.50
2023-03-12T11:04:18.869Z,98412.88
2023-03-12T11:07:16.771Z,98420.69
2023-03-12T11:09:44.973Z,98405.88
2023-03-12T11:12:30.879Z,98406.81
2023-03-12T11:14:58.936Z,98405.72
2023-03-12T11:17:28.367Z,98406.91
2023-03-12T11:19:55.337Z,98418.53
2023-03-12T11:22:35.276Z,98432.03
2023-03-12T11:25:06.394Z,98433.41
2023-03-12T11:27:44.280Z,98414.31
2023-03-12T11:30:15.572Z,98427.38
2023-03-12T11:32:46.649Z,98429.75
2023-03-12T11:35:16.157Z,98430.63
2023-03-12T11:38:09.580Z,98447.00
2023-03-12T11:40:55.034Z,98433.50
2023-03-12T11:43:42.829Z,98437.00
2023-03-12T11:46:40.807Z,98426.59
2023-03-12T11:49:23.809Z,98430.81
2023-03-12T11:52:11.621Z,98427.38
2023-03-12T11:54:48.297Z,98420.06
2023-03-12T11:57:21.014Z,98422.41
2023-03-12T12:00:12.758Z,98418.97
2023-03-12T12:02:54.760Z,98431.63
2023-03-12T12:05:32.611Z,98426.28
2023-03-12T12:08:37.051Z,98423.09
2023-03-12T12:11:09.508Z,98435.41
2023-03-12T12:14:13.478Z,98416.34
2023-03-12T12:16:43.086Z,98415.16
2023-03-12T12:19:21.919Z,98410.78
2023-03-12T12:22:22.624Z,98416.38
2023-03-12T12:25:21.859Z,98416.13
2023-03-12T12:27:56.240Z,98409.91
2023-03-12T12:30:53.141Z,98397.44
2023-03-12T12:33:47.475Z,98403.53
2023-03-12T12:36:14.744Z,98394.31
2023-03-12T12:38:55.216Z,98394.59
2023-03-12T12:41:26.659Z,98392.88
2023-03-12T12:43:58.066Z,98397.44
2023-03-12T12:46:41.575Z,98396.81
2023-03-12T12:49:24.601Z,98399.19
2023-03-12T12:51:57.344Z,98395.88
2023-03-12T12:54:35.673Z,98395.34
2023-03-12T12:57:16.747Z,98395.06
2023-03-12T12:59:52.187Z,98392.88
2023-03-12T13:02:26.482Z,98382.94
2023-03-12T13:04:57.889Z,98385.59
2023-03-12T13:07:27.635Z,98387.38
2023-03-12T13:09:57.100Z,98387.69
2023-03-12T13:12:47.672Z,98382.94
2023-03-12T13:15:29.377Z,98374.66
2023-03-12T13:17:58.947Z,98364.94
2023-03-12T13:20:43.186Z,98344.19
2023-03-12T13:23:47.093Z,98340.56
2023-03-12T13:26:19.578Z,98326.38
2023-03-12T13:28:56.704Z,98332.88
2023-03-12T13:31:29.467Z,98318.91
2023-03-12T13:34:20.017Z,98312.28
2023-03-12T13:36:50.426Z,98307.53
2023-03-12T13:39:17.261Z,98302.63
2023-03-12T13:41:54.914Z,98310.38
2023-03-12T13:44:27.428Z,98297.69
2023-03-12T13:47:10.539Z,98296.75
2023-03-12T13:49:42.763Z,98296.72
2023-03-12T13:52:20.973Z,98288.75
2023-03-12T13:55:13.822Z,98295.28
2023-03-12T13:57:51.113Z,98285.28
2023-03-12T14:00:40.455Z,98279.88
2023-03-12T14:03:49.702Z,98279.06
2023-03-12T14:06:24.442Z,98286.63
2023-03-12T14:08:57.223Z,98272.50
2023-03-12T14:11:42.175Z,98269.34
2023-03-12T14:14:31.190Z,98256.84
2023-03-12T14:17:03.951Z,98246.50
2023-03-12T14:19:33.936Z,98241.44
2023-03-12T14:22:07.330Z,98239.63
2023-03-12T14:24:40.949Z,98235.06
2023-03-12T14:27:17.785Z,98231.81
2023-03-12T14:29:58.604Z,98243.91
2023-03-12T14:32:32.084Z,98251.09
2023-03-12T14:35:20.694Z,98244.97
2023-03-12T14:37:59.721Z,98238.84
2023-03-12T14:40:57.924Z,98227.38
2023-03-12T14:43:30.252Z,98233.06
2023-03-12T14:46:02.545Z,98220.34
2023-03-12T14:48:32.102Z,98211.75
2023-03-12T14:50:59.883Z,98210.72
2023-03-12T14:53:30.311Z,98212.19
2023-03-12T14:56:07.685Z,98212.81
2023-03-12T14:58:42.175Z,98208.47
2023-03-12T15:01:14.369Z,98203.13
2023-03-12T15:03:45.451Z,98205.59
2023-03-12T15:06:19.916Z,98205.38
2023-03-12T15:08:46.659Z,98192.00
2023-03-12T15:11:13.379Z,98189.75
2023-03-12T15:13:40.186Z,98192.00
2023-03-12T15:16:07.745Z,98182.56
2023-03-12T15:18:34.779Z,98180.69
2023-03-12T15:21:03.073Z,98171.47
2023-03-12T15:23:32.568Z,98170.63
2023-03-12T15:26:33.244Z,98162.84
2023-03-12T15:29:14.158Z,98168.38
2023-03-12T15:31:46.848Z,98156.25
2023-03-12T15:34:27.970Z,98159.31
2023-03-12T15:36:55.025Z,98152.75
2023-03-12T15:39:26.559Z,98143.91
2023-03-12T15:41:55.094Z,98134.84
2023-03-12T15:44:48.145Z,98142.28
2023-03-12T15:47:18.780Z,98135.88
2023-03-12T15:49:52.846Z,98126.03
2023-03-12T15:52:19.829Z,98122.13
2023-03-12T15:55:01.576Z,98121.09
2023-03-12T15:57:29.783Z,98120.09
2023-03-12T16:00:18.753Z,98123.34
2023-03-12T16:03:06.030Z,98120.88
2023-03-12T16:05:39.049Z,98119.25
2023-03-12T16:08:21.562Z,98111.66
2023-03-12T16:10:50.084Z,98121.91
2023-03-12T16:13:20.252Z,98123.44
2023-03-12T16:15:48.121Z,98134.00
2023-03-12T16:18:18.132Z,98127.44
2023-03-12T16:20:46.084Z,98130.47
2023-03-12T16:23:13.501Z,98115.28
2023-03-12T16:25:43.722Z,98109.53
2023-03-12T16:28:14.265Z,98097.81
2023-03-12T16:30:41.284Z,98103.47
2023-03-12T16:33:09.479Z,98111.28
2023-03-12T16:35:36.516Z,98109.38
2023-03-12T16:38:03.786Z,98112.44
2023-03-12T16:40:34.259Z,98098.63
2023-03-12T16:43:06.742Z,98092.19
2023-03-12T16:45:35.997Z,98101.97
2023-03-12T16:48:05.901Z,98094.16
2023-03-12T16:50:32.675Z,98089.91
2023-03-12T16:52:59.778Z,98088.22
2023-03-12T16:55:30.119Z,98086.59
2023-03-12T16:58:00.345Z,98084.59
2023-03-12T17:00:30.452Z,98093.28
2023-03-12T17:02:58.257Z,98085.19
2023-03-12T17:05:26.942Z,98084.72
2023-03-12T17:07:55.504Z,98088.63
2023-03-12T17:10:23.109Z,98072.13
2023-03-12T17:12:50.819Z,98061.13
2023-03-12T17:15:21.636Z,98049.72
2023-03-12T17:17:49.737Z,98047.22
2023-03-12T17:20:19.026Z,98043.53
2023-03-12T17:22:46.175Z,98047.53
2023-03-12T17:25:25.997Z,98041.09
2023-03-12T17:27:53.336Z,98040.22
2023-03-12T17:30:22.150Z,98044.38
2023-03-12T17:32:50.459Z,98050.59
2023-03-12T17:35:18.351Z,98046.41
2023-03-12T17:37:45.830Z,98031.53
2023-03-12T17:40:13.023Z,98037.13
2023-03-12T17:42:39.727Z,98031.44
2023-03-12T17:45:09.074Z,98033.03
2023-03-12T17:47:36.440Z,98030.63
2023-03-12T17:50:04.727Z,98026.09
2023-03-12T17:52:32.290Z,98022.31
2023-03-12T17:54:59.023Z,98020.44
2023-03-12T17:57:25.781Z,98028.31
2023-03-12T17:59:52.858Z,98028.19
2023-03-12T18:02:19.970Z,98030.09
2023-03-12T18:04:46.692Z,98020.41
2023-03-12T18:07:13.458Z,98017.28
2023-03-12T18:09:40.144Z,98015.06
2023-03-12T18:12:07.229Z,98013.41
2023-03-12T18:14:34.318Z,98014.88
2023-03-12T18:17:01.164Z,98012.09
2023-03-12T18:19:29.334Z,98007.38
2023-03-12T18:21:56.342Z,98009.38
2023-03-12T18:24:23.016Z,97996.59
2023-03-12T18:26:51.630Z,97997.31
2023-03-12T18:29:18.511Z,98002.19
2023-03-12T18:31:45.283Z,97995.22
2023-03-12T18:34:11.988Z,97996.69
2023-03-12T18:36:38.789Z,97994.19
2023-03-12T18:39:06.528Z,97996.22
2023-03-12T18:41:33.546Z,97986.06
2023-03-12T18:44:00.710Z,97989.81
2023-03-12T18:46:28.288Z,97977.00
2023-03-12T18:48:54.986Z,97982.50
2023-03-12T18:51:22.331Z,97978.19
2023-03-12T18:53:48.998Z,97969.88
2023-03-12T18:56:15.787Z,97966.34
2023-03-12T18:58:42.680Z,97960.22
2023-03-12T19:01:09.454Z,97956.38
2023-03-12T19:03:36.538Z,97953.91
2023-03-12T19:06:08.312Z,97953.97
2023-03-12T19:08:37.257Z,97949.09
2023-03-12T19:11:09.552Z,97945.03
2023-03-12T19:13:36.616Z,97943.66
2023-03-12T19:16:08.428Z,97945.13
2023-03-12T19:18:36.238Z,97936.75
2023-03-12T19:21:03.559Z,97941.31
2023-03-12T19:23:30.395Z,97937.28
2023-03-12T19:25:57.012Z,97938.16
2023-03-12T19:28:23.791Z,97931.31
2023-03-12T19:30:50.510Z,97930.06
2023-03-12T19:33:17.245Z,97911.38
2023-03-12T19:35:44.027Z,97916.44
2023-03-12T19:38:10.837Z,97915.78
2023-03-12T19:40:37.524Z,97924.78
2023-03-12T19:43:04.348Z,97919.66
2023-03-12T19:45:31.250Z,97920.28
2023-03-12T19:47:57.965Z,97918.44
2023-03-12T19:50:24.720Z,97910.59
2023-03-12T19:52:51.500Z,97908.50
2023-03-12T19:55:18.227Z,97897.25
2023-03-12T19:57:46.391Z,97900.06
2023-03-12T20:00:13.398Z,97892.31
2023-03-12T20:02:40.343Z,97896.25
2023-03-12T20:05:08.419Z,97893.19
2023-03-12T20:07:35.642Z,97898.38
2023-03-12T20:10:02.458Z,97892.47
2023-03-12T20:12:29.243Z,97889.63
2023-03-12T20:14:55.895Z,97898.38
2023-03-12T20:17:22.732Z,97889.53
2023-03-12T20:19:49.388Z,97890.94
2023-03-12T20:22:16.095Z,97883.84
2023-03-12T20:24:42.723Z,97885.63
2023-03-12T20:27:09.531Z,97883.16
2023-03-12T20:29:36.217Z,97878.75
2023-03-12T20:32:03.023Z,97877.00
2023-03-12T20:34:29.795Z,97866.03
2023-03-12T20:36:58.001Z,97858.13
2023-03-12T20:39:24.722Z,97856.72
2023-03-12T20:41:51.458Z,97852.44
2023-03-12T20:44:18.498Z,97843.88
2023-03-12T20:46:47.013Z,97841.84
2023-03-12T20:49:14.467Z,97840.66
2023-03-12T20:51:42.740Z,97835.34
2023-03-12T20:54:09.514Z,97824.47
2023-03-12T20:56:36.743Z,97815.50
2023-03-12T20:59:03.413Z,97803.81
2023-03-12T21:01:30.246Z,97805.47
2023-03-12T21:03:58.358Z,97804.66
2023-03-12T21:06:26.807Z,97803.44
2023-03-12T21:08:57.183Z,97795.47
2023-03-12T21:11:24.875Z,97801.41
2023-03-12T21:13:51.626Z,97796.09
2023-03-12T21:16:18.715Z,97788.72
2023-03-12T21:18:45.552Z,97778.47
2023-03-12T21:21:12.523Z,97773.75
2023-03-12T21:23:39.315Z,97766.66
2023-03-12T21:26:09.416Z,97766.25
2023-03-12T21:28:36.707Z,97754.97
2023-03-12T21:31:06.008Z,97747.16
2023-03-12T21:33:32.917Z,97746.13
2023-03-12T21:35:59.722Z,97743.66
2023-03-12T21:38:26.450Z,97743.19
2023-03-12T21:40:54.247Z,97737.25
2023-03-12T21:43:20.999Z,97727.63
2023-03-12T21:45:47.697Z,97733.16
2023-03-12T21:48:14.651Z,97730.88
2023-03-12T21:50:41.314Z,97724.09
2023-03-12T21:53:22.857Z,97728.63
2023-03-12T21:55:57.612Z,97718.59
2023-03-12T21:58:24.437Z,97714.91
2023-03-12T22:00:51.523Z,97718.41
2023-03-12T22:03:18.549Z,97713.09
2023-03-12T22:05:51.602Z,97713.28
2023-03-12T22:08:18.351Z,97713.28
2023-03-12T22:10:45.308Z,97708.34
2023-03-12T22:13:12.071Z,97692.78
2023-03-12T22:15:39.048Z,97692.34
2023-03-12T22:18:05.857Z,97693.38
2023-03-12T22:20:39.465Z,97691.94
2023-03-12T22:23:06.198Z,97678.44
2023-03-12T22:25:35.382Z,97669.44
2023-03-12T22:28:02.210Z,97664.75
2023-03-12T22:30:28.881Z,97649.25
2023-03-12T22:32:57.802Z,97643.50
2023-03-12T22:35:27.094Z,97625.72
2023-03-12T22:37:54.366Z,97627.13
2023-03-12T22:40:21.096Z,97622.84
2023-03-12T22:42:52.840Z,97614.88
2023-03-12T22:45:20.108Z,97610.75
2023-03-12T22:47:46.828Z,97609.72
2023-03-12T22:50:13.802Z,97602.38
2023-03-12T22:52:40.507Z,97588.88
2023-03-12T22:55:07.692Z,97587.66
2023-03-12T22:57:35.532Z,97581.13
2023-03-12T23:00:05.961Z,97583.16
2023-03-12T23:02:32.662Z,97574.38
2023-03-12T23:04:59.727Z,97579.06
2023-03-12T23:07:26.492Z,97579.25
2023-03-12T23:09:53.221Z,97575.97
2023-03-12T23:12:19.976Z,97568.63
2023-03-12T23:14:46.732Z,97561.06
2023-03-12T23:17:13.566Z,97564.16
2023-03-12T23:19:42.854Z,97553.53
2023-03-12T23:22:10.725Z,97544.50
2023-03-12T23:24:37.561Z,97534.91
2023-03-12T23:27:04.839Z,97521.38
2023-03-12T23:29:32.300Z,97509.75
2023-03-12T23:31:59.452Z,97506.03
2023-03-12T23:34:26.640Z,97498.06
2023-03-12T23:36:53.557Z,97486.00
2023-03-12T23:39:20.244Z,97478.44
2023-03-12T23:41:47.038Z,97466.75
2023-03-12T23:44:13.804Z,97464.31
2023-03-12T23:46:40.492Z,97450.19
2023-03-12T23:49:07.201Z,97439.78
2023-03-12T23:51:34.146Z,97427.47
2023-03-12T23:54:05.526Z,97426.06
2023-03-12T23:56:35.535Z,97409.09
2023-03-12T23:59:03.493Z,97401.09
